createdAt,value
2024-01-29T00:00:36.016Z,101774.3
2024-01-29T00:01:36.532Z,101773.31
2024-01-29T00:02:40.069Z,101778.12
2024-01-29T00:03:37.804Z,101777.46
2024-01-29T00:04:38.115Z,101775.2
2024-01-29T00:05:38.396Z,101779.89
2024-01-29T00:06:38.863Z,101777.8
2024-01-29T00:07:38.981Z,101772.54
2024-01-29T00:08:39.481Z,101775
2024-01-29T00:09:39.829Z,101772.66
2024-01-29T00:10:40.205Z,101774.35
2024-01-29T00:11:40.689Z,101769.39
2024-01-29T00:12:40.890Z,101771.84
2024-01-29T00:13:41.530Z,101768.15
2024-01-29T00:14:41.430Z,101766.42
2024-01-29T00:15:41.922Z,101765.61
2024-01-29T00:16:41.991Z,101767.05
2024-01-29T00:17:42.659Z,101766.05
2024-01-29T00:18:43.242Z,101760.55
2024-01-29T00:19:43.329Z,101767.56
2024-01-29T00:20:43.625Z,101769.59
2024-01-29T00:21:43.964Z,101771.52
2024-01-29T00:22:44.385Z,101768.34
2024-01-29T00:23:44.706Z,101766.34
2024-01-29T00:24:45.069Z,101761.34
2024-01-29T00:25:45.177Z,101757.81
2024-01-29T00:26:45.641Z,101753.17
2024-01-29T00:27:46.036Z,101755.77
2024-01-29T00:28:46.685Z,101753.88
2024-01-29T00:29:46.762Z,101756.62
2024-01-29T00:30:47.231Z,101753.79
2024-01-29T00:31:47.371Z,101754.12
2024-01-29T00:32:47.878Z,101754.97
2024-01-29T00:33:48.233Z,101753.09
2024-01-29T00:34:48.490Z,101755.8
2024-01-29T00:35:48.713Z,101750.67
2024-01-29T00:36:49.140Z,101750.88
2024-01-29T00:37:49.463Z,101747.64
2024-01-29T00:38:49.934Z,101741.84
2024-01-29T00:39:51.136Z,101745.42
2024-01-29T00:40:50.585Z,101748.37
2024-01-29T00:41:51.729Z,101744.52
2024-01-29T00:42:51.668Z,101744.83
2024-01-29T00:43:51.793Z,101750.58
2024-01-29T00:44:52.028Z,101748.73
2024-01-29T00:45:52.282Z,101750.42
2024-01-29T00:46:52.775Z,101756.28
2024-01-29T00:47:53.062Z,101753.28
2024-01-29T00:48:53.446Z,101753.81
2024-01-29T00:49:53.824Z,101751.92
2024-01-29T00:50:54.209Z,101760.59
2024-01-29T00:51:54.448Z,101756.16
2024-01-29T00:52:54.738Z,101756.28
2024-01-29T00:53:55.220Z,101752.39
2024-01-29T00:54:55.556Z,101754.28
2024-01-29T00:55:55.692Z,101751.37
2024-01-29T00:56:56.094Z,101755.34
2024-01-29T00:57:56.562Z,101749.92
2024-01-29T00:58:56.832Z,101755.7
2024-01-29T00:59:57.151Z,101754.97
2024-01-29T01:00:57.593Z,101756.78
2024-01-29T01:01:58.198Z,101757.59
2024-01-29T01:02:58.274Z,101758.83
2024-01-29T01:03:58.717Z,101759.35
2024-01-29T01:04:59.098Z,101758.2
2024-01-29T01:05:59.251Z,101750.33
2024-01-29T01:06:59.658Z,101756.73
2024-01-29T01:08:00.153Z,101760.92
2024-01-29T01:09:00.382Z,101764.01
2024-01-29T01:10:00.998Z,101766.3
2024-01-29T01:11:01.001Z,101763.34
2024-01-29T01:12:01.275Z,101764.09
2024-01-29T01:13:01.673Z,101761.38
2024-01-29T01:14:02.732Z,101760.18
2024-01-29T01:15:02.349Z,101760.71
2024-01-29T01:16:02.907Z,101759.22
2024-01-29T01:17:03.205Z,101768.05
2024-01-29T01:18:03.965Z,101763.82
2024-01-29T01:19:04.160Z,101764.14
2024-01-29T01:20:05.018Z,101762.26
2024-01-29T01:21:04.751Z,101762.17
2024-01-29T01:22:05.438Z,101761.94
2024-01-29T01:23:05.277Z,101755.41
2024-01-29T01:24:06.255Z,101753.81
2024-01-29T01:25:07.193Z,101752.72
2024-01-29T01:26:06.733Z,101753.64
2024-01-29T01:27:06.523Z,101747.95
2024-01-29T01:28:07.029Z,101741.83
2024-01-29T01:29:07.348Z,101742.85
2024-01-29T01:30:08.534Z,101746.87
2024-01-29T01:31:08.163Z,101745.89
2024-01-29T01:32:08.313Z,101743.67
2024-01-29T01:33:08.780Z,101742.48
2024-01-29T01:34:09.306Z,101743.43
2024-01-29T01:35:09.437Z,101742.08
2024-01-29T01:36:09.654Z,101739.52
2024-01-29T01:37:10.138Z,101735.96
2024-01-29T01:38:10.489Z,101735.48
2024-01-29T01:39:10.805Z,101730.2
2024-01-29T01:40:12.395Z,101729.51
2024-01-29T01:41:11.447Z,101732.46
2024-01-29T01:42:11.763Z,101727.89
2024-01-29T01:43:18.985Z,101727.77
2024-01-29T01:44:16.417Z,101724.64
2024-01-29T01:45:16.811Z,101723.5
2024-01-29T01:46:24.314Z,101713.7
2024-01-29T01:47:21.844Z,101712.64
2024-01-29T01:48:22.412Z,101712.45
2024-01-29T01:49:23.589Z,101711.84
2024-01-29T01:50:22.977Z,101708.44
2024-01-29T01:51:24.516Z,101717.8
2024-01-29T01:52:23.902Z,101715.12
2024-01-29T01:53:24.533Z,101713.31
2024-01-29T01:54:24.912Z,101716.08
2024-01-29T01:55:25.318Z,101715.19
2024-01-29T01:56:25.403Z,101713.2
2024-01-29T01:57:25.830Z,101710.23
2024-01-29T01:58:27.674Z,101699.94
2024-01-29T01:59:26.718Z,101705.93
2024-01-29T02:00:26.906Z,101704.33
2024-01-29T02:01:27.579Z,101707.91
2024-01-29T02:02:27.855Z,101705.91
2024-01-29T02:03:28.672Z,101701.8
2024-01-29T02:04:27.954Z,101698.73
2024-01-29T02:05:28.332Z,101701.84
2024-01-29T02:06:29.492Z,101705.75
2024-01-29T02:07:29.076Z,101705.99
2024-01-29T02:08:30.449Z,101710
2024-01-29T02:09:30.026Z,101715.11
2024-01-29T02:10:30.129Z,101714.21
2024-01-29T02:11:30.176Z,101715.77
2024-01-29T02:12:30.614Z,101718.28
2024-01-29T02:13:31.019Z,101712.91
2024-01-29T02:14:32.129Z,101711.03
2024-01-29T02:15:31.637Z,101711.81
2024-01-29T02:16:31.951Z,101709
2024-01-29T02:17:32.403Z,101712.39
2024-01-29T02:18:32.838Z,101709.55
2024-01-29T02:19:33.324Z,101707.94
2024-01-29T02:20:33.982Z,101717.83
2024-01-29T02:21:33.737Z,101710.98
2024-01-29T02:22:34.144Z,101703.16
2024-01-29T02:23:34.576Z,101698.59
2024-01-29T02:24:34.832Z,101696.55
2024-01-29T02:25:35.270Z,101702.45
2024-01-29T02:26:35.602Z,101703.39
2024-01-29T02:27:35.841Z,101697.69
2024-01-29T02:28:36.331Z,101691.33
2024-01-29T02:29:36.640Z,101698.06
2024-01-29T02:30:36.978Z,101703.59
2024-01-29T02:31:37.400Z,101701.06
2024-01-29T02:32:37.595Z,101701.27
2024-01-29T02:33:38.142Z,101700.45
2024-01-29T02:34:38.676Z,101701.69
2024-01-29T02:35:38.655Z,101702.95
2024-01-29T02:36:39.122Z,101701.69
2024-01-29T02:37:39.457Z,101693.81
2024-01-29T02:38:39.671Z,101699.11
2024-01-29T02:39:40.128Z,101702.06
2024-01-29T02:40:40.446Z,101700.94
2024-01-29T02:41:40.799Z,101707.38
2024-01-29T02:42:43.960Z,101709.67
2024-01-29T02:43:41.451Z,101709.31
2024-01-29T02:44:41.861Z,101712.79
2024-01-29T02:45:42.126Z,101714.92
2024-01-29T02:46:42.211Z,101720.25
2024-01-29T02:47:42.923Z,101724.03
2024-01-29T02:48:43.277Z,101725.55
2024-01-29T02:49:44.805Z,101727.86
2024-01-29T02:50:43.781Z,101732.7
2024-01-29T02:51:44.241Z,101735.36
2024-01-29T02:52:44.585Z,101740.33
2024-01-29T02:53:44.833Z,101744.94
2024-01-29T02:54:45.367Z,101730.89
2024-01-29T02:55:45.744Z,101735.81
2024-01-29T02:56:45.954Z,101731.22
2024-01-29T02:57:46.428Z,101732.05
2024-01-29T02:58:46.627Z,101727.85
2024-01-29T02:59:47.091Z,101729.09
2024-01-29T03:00:47.379Z,101727.86
2024-01-29T03:01:47.811Z,101732.53
2024-01-29T03:02:48.447Z,101735.77
2024-01-29T03:03:48.517Z,101746.85
2024-01-29T03:04:48.981Z,101744.1
2024-01-29T03:05:49.073Z,101736.43
2024-01-29T03:06:49.500Z,101745.98
2024-01-29T03:07:50.002Z,101736.75
2024-01-29T03:08:50.105Z,101738.56
2024-01-29T03:09:50.557Z,101735.78
2024-01-29T03:10:51.257Z,101735.12
2024-01-29T03:11:51.290Z,101744.77
2024-01-29T03:12:51.775Z,101742.8
2024-01-29T03:13:51.981Z,101734.64
2024-01-29T03:14:52.931Z,101744.48
2024-01-29T03:15:52.875Z,101747.23
2024-01-29T03:16:53.036Z,101746
2024-01-29T03:17:53.291Z,101746.16
2024-01-29T03:18:53.783Z,101740.67
2024-01-29T03:19:54.215Z,101735.95
2024-01-29T03:20:54.291Z,101733
2024-01-29T03:21:54.852Z,101734.39
2024-01-29T03:22:55.030Z,101735.95
2024-01-29T03:23:56.687Z,101738
2024-01-29T03:24:55.882Z,101735.25
2024-01-29T03:25:56.069Z,101737.42
2024-01-29T03:26:56.490Z,101734.72
2024-01-29T03:27:56.992Z,101735.7
2024-01-29T03:28:57.511Z,101730.33
2024-01-29T03:29:57.535Z,101730.45
2024-01-29T03:30:57.913Z,101735.58
2024-01-29T03:31:58.209Z,101734.8
2024-01-29T03:32:58.600Z,101730.73
2024-01-29T03:33:58.906Z,101727.95
2024-01-29T03:34:59.253Z,101723.85
2024-01-29T03:36:03.569Z,101718.55
2024-01-29T03:37:01.301Z,101715.23
2024-01-29T03:38:01.422Z,101713.97
2024-01-29T03:39:01.884Z,101708.67
2024-01-29T03:40:03.804Z,101702.39
2024-01-29T03:41:02.437Z,101700.38
2024-01-29T03:42:02.789Z,101702.18
2024-01-29T03:43:03.407Z,101690.05
2024-01-29T03:44:03.575Z,101693.05
2024-01-29T03:45:04.602Z,101691.97
2024-01-29T03:46:04.825Z,101690.95
2024-01-29T03:47:05.169Z,101685.91
2024-01-29T03:48:05.667Z,101685.49
2024-01-29T03:49:05.391Z,101690.7
2024-01-29T03:50:07.022Z,101683.24
2024-01-29T03:51:05.974Z,101691.9
2024-01-29T03:52:06.516Z,101690.05
2024-01-29T03:53:06.793Z,101695.54
2024-01-29T03:54:06.964Z,101695.58
2024-01-29T03:55:08.145Z,101695.7
2024-01-29T03:56:07.791Z,101700.47
2024-01-29T03:57:08.010Z,101696.38
2024-01-29T03:58:08.504Z,101693.95
2024-01-29T03:59:08.771Z,101692.42
2024-01-29T04:00:10.447Z,101692.84
2024-01-29T04:01:09.616Z,101694.11
2024-01-29T04:02:10.030Z,101689.8
2024-01-29T04:03:10.559Z,101692.52
2024-01-29T04:04:10.801Z,101688.28
2024-01-29T04:05:11.472Z,101690.27
2024-01-29T04:06:11.211Z,101686.08
2024-01-29T04:07:11.677Z,101687.43
2024-01-29T04:08:11.863Z,101689.11
2024-01-29T04:09:12.277Z,101690.21
2024-01-29T04:10:13.186Z,101690.09
2024-01-29T04:11:12.983Z,101685.09
2024-01-29T04:12:13.429Z,101684.27
2024-01-29T04:13:13.903Z,101680.83
2024-01-29T04:14:14.100Z,101683.21
2024-01-29T04:15:15.450Z,101678.58
2024-01-29T04:16:14.942Z,101679.19
2024-01-29T04:17:15.235Z,101673.88
2024-01-29T04:18:15.683Z,101672.08
2024-01-29T04:19:16.084Z,101671.52
2024-01-29T04:20:16.191Z,101674.92
2024-01-29T04:21:16.600Z,101669.78
2024-01-29T04:22:16.859Z,101675.53
2024-01-29T04:23:17.125Z,101671.72
2024-01-29T04:24:17.533Z,101679.42
2024-01-29T04:25:18.128Z,101683.48
2024-01-29T04:26:18.290Z,101679.98
2024-01-29T04:27:18.595Z,101687.62
2024-01-29T04:28:18.908Z,101683.61
2024-01-29T04:29:19.265Z,101680.7
2024-01-29T04:30:19.817Z,101677.58
2024-01-29T04:31:20.015Z,101674.38
2024-01-29T04:32:20.378Z,101675.65
2024-01-29T04:33:21.203Z,101680.29
2024-01-29T04:34:21.262Z,101682.7
2024-01-29T04:35:21.441Z,101681.47
2024-01-29T04:36:21.768Z,101675.61
2024-01-29T04:37:22.144Z,101680.16
2024-01-29T04:38:22.333Z,101679.84
2024-01-29T04:39:22.776Z,101680.58
2024-01-29T04:40:23.275Z,101675.12
2024-01-29T04:41:23.382Z,101680.29
2024-01-29T04:42:23.827Z,101675.78
2024-01-29T04:43:24.146Z,101682.17
2024-01-29T04:44:24.566Z,101679.34
2024-01-29T04:45:24.934Z,101677.28
2024-01-29T04:46:25.321Z,101667.95
2024-01-29T04:47:25.675Z,101672.14
2024-01-29T04:48:25.863Z,101670.81
2024-01-29T04:49:26.416Z,101666.47
2024-01-29T04:50:26.738Z,101670.08
2024-01-29T04:51:27.814Z,101678.11
2024-01-29T04:52:27.245Z,101674.59
2024-01-29T04:53:27.762Z,101669.09
2024-01-29T04:54:27.979Z,101672.99
2024-01-29T04:55:28.502Z,101670.28
2024-01-29T04:56:28.617Z,101669.72
2024-01-29T04:57:29.053Z,101663.89
2024-01-29T04:58:29.166Z,101660.64
2024-01-29T04:59:29.658Z,101660.76
2024-01-29T05:00:30.330Z,101660.03
2024-01-29T05:01:30.578Z,101657.25
2024-01-29T05:02:30.688Z,101654.5
2024-01-29T05:03:31.955Z,101650.16
2024-01-29T05:04:31.499Z,101651.06
2024-01-29T05:05:31.934Z,101649.7
2024-01-29T05:06:32.226Z,101647.66
2024-01-29T05:07:32.465Z,101647.78
2024-01-29T05:08:32.773Z,101649.3
2024-01-29T05:09:33.336Z,101649.44
2024-01-29T05:10:33.961Z,101643.16
2024-01-29T05:11:33.820Z,101645.31
2024-01-29T05:12:35.344Z,101647.78
2024-01-29T05:13:34.569Z,101643.31
2024-01-29T05:14:34.865Z,101642.66
2024-01-29T05:15:35.642Z,101639.7
2024-01-29T05:16:35.566Z,101639.12
2024-01-29T05:17:35.956Z,101642
2024-01-29T05:18:36.404Z,101640.81
2024-01-29T05:19:36.605Z,101647.74
2024-01-29T05:20:37.255Z,101648.86
2024-01-29T05:21:37.285Z,101653.89
2024-01-29T05:22:37.788Z,101656.96
2024-01-29T05:23:38.205Z,101655.06
2024-01-29T05:24:38.571Z,101649.34
2024-01-29T05:25:38.787Z,101640.23
2024-01-29T05:26:39.151Z,101643.59
2024-01-29T05:27:39.506Z,101639.37
2024-01-29T05:28:39.782Z,101643.39
2024-01-29T05:29:40.141Z,101649.62
2024-01-29T05:30:40.591Z,101657.54
2024-01-29T05:31:40.927Z,101654.62
2024-01-29T05:32:41.274Z,101662.12
2024-01-29T05:33:41.690Z,101660.95
2024-01-29T05:34:42.102Z,101664.21
2024-01-29T05:35:44.529Z,101667.58
2024-01-29T05:36:42.817Z,101666.92
2024-01-29T05:37:43.019Z,101671.06
2024-01-29T05:38:43.314Z,101672.91
2024-01-29T05:39:43.714Z,101676.57
2024-01-29T05:40:43.987Z,101677.55
2024-01-29T05:41:44.486Z,101676.2
2024-01-29T05:42:44.934Z,101675.25
2024-01-29T05:43:45.229Z,101676.89
2024-01-29T05:44:45.382Z,101666.52
2024-01-29T05:45:45.954Z,101661.44
2024-01-29T05:46:46.037Z,101659.22
2024-01-29T05:47:46.702Z,101657.95
2024-01-29T05:48:46.869Z,101651.39
2024-01-29T05:49:47.109Z,101649.63
2024-01-29T05:50:47.611Z,101649.88
2024-01-29T05:51:47.963Z,101652.25
2024-01-29T05:52:48.368Z,101651.88
2024-01-29T05:53:48.436Z,101648.1
2024-01-29T05:54:49.001Z,101650.03
2024-01-29T05:55:49.390Z,101644.08
2024-01-29T05:56:51.487Z,101649.91
2024-01-29T05:57:50.107Z,101652.12
2024-01-29T05:58:50.330Z,101655.44
2024-01-29T05:59:50.759Z,101657.91
2024-01-29T06:00:51.544Z,101655.33
2024-01-29T06:01:51.455Z,101658.19
2024-01-29T06:02:52.036Z,101659.22
2024-01-29T06:03:52.638Z,101661.39
2024-01-29T06:04:52.557Z,101656.47
2024-01-29T06:05:53.322Z,101659.17
2024-01-29T06:06:53.153Z,101662.38
2024-01-29T06:07:53.452Z,101656.87
2024-01-29T06:08:54.591Z,101656.22
2024-01-29T06:09:54.246Z,101663.31
2024-01-29T06:10:54.622Z,101661.3
2024-01-29T06:11:54.935Z,101661.97
2024-01-29T06:12:55.156Z,101662.45
2024-01-29T06:13:55.487Z,101659.3
2024-01-29T06:14:55.906Z,101661.59
2024-01-29T06:15:56.631Z,101665.89
2024-01-29T06:16:57.218Z,101673.36
2024-01-29T06:17:57.173Z,101674.76
2024-01-29T06:18:57.823Z,101674.19
2024-01-29T06:20:09.155Z,101670
2024-01-29T06:21:00.121Z,101668.86
2024-01-29T06:21:59.411Z,101676.16
2024-01-29T06:22:59.697Z,101671.64
2024-01-29T06:24:00.033Z,101674.02
2024-01-29T06:25:00.442Z,101677.12
2024-01-29T06:26:00.752Z,101678
2024-01-29T06:27:01.314Z,101677.91
2024-01-29T06:28:01.600Z,101677.3
2024-01-29T06:29:01.678Z,101673.69
2024-01-29T06:30:02.106Z,101675.09
2024-01-29T06:31:02.656Z,101673.94
2024-01-29T06:32:03.154Z,101677.19
2024-01-29T06:33:03.572Z,101676.77
2024-01-29T06:34:03.746Z,101682.19
2024-01-29T06:35:04.604Z,101684.36
2024-01-29T06:36:04.916Z,101687.27
2024-01-29T06:37:05.027Z,101684.84
2024-01-29T06:38:05.256Z,101684.43
2024-01-29T06:39:05.343Z,101683.2
2024-01-29T06:40:07.032Z,101686.36
2024-01-29T06:41:06.160Z,101680.05
2024-01-29T06:42:06.449Z,101681.57
2024-01-29T06:43:06.819Z,101681.6
2024-01-29T06:44:07.108Z,101679.55
2024-01-29T06:45:08.450Z,101675.42
2024-01-29T06:46:07.750Z,101673.28
2024-01-29T06:47:08.153Z,101673.44
2024-01-29T06:48:08.599Z,101665.61
2024-01-29T06:49:08.941Z,101660.73
2024-01-29T06:50:09.856Z,101659.58
2024-01-29T06:51:10.121Z,101659.66
2024-01-29T06:52:14.059Z,101658.02
2024-01-29T06:53:14.495Z,101651.33
2024-01-29T06:54:14.677Z,101654.11
2024-01-29T06:55:15.427Z,101651.28
2024-01-29T06:56:15.602Z,101652.38
2024-01-29T06:57:15.798Z,101650.86
2024-01-29T06:58:16.407Z,101646.67
2024-01-29T06:59:16.443Z,101643.59
2024-01-29T07:00:17.463Z,101637.55
2024-01-29T07:01:21.290Z,101638.12
2024-01-29T07:02:18.717Z,101641.24
2024-01-29T07:03:19.250Z,101641.27
2024-01-29T07:04:20.255Z,101639.17
2024-01-29T07:05:20.507Z,101635.12
2024-01-29T07:06:20.338Z,101635.94
2024-01-29T07:07:20.646Z,101636.67
2024-01-29T07:08:20.989Z,101635.75
2024-01-29T07:09:21.310Z,101637.12
2024-01-29T07:10:21.439Z,101632.88
2024-01-29T07:11:21.794Z,101638.5
2024-01-29T07:12:22.457Z,101639.08
2024-01-29T07:13:22.671Z,101643.42
2024-01-29T07:14:22.909Z,101644.56
2024-01-29T07:15:23.150Z,101647.98
2024-01-29T07:16:23.613Z,101643.52
2024-01-29T07:17:24.652Z,101642.02
2024-01-29T07:18:24.740Z,101647.48
2024-01-29T07:19:24.880Z,101641.29
2024-01-29T07:20:26.841Z,101641.75
2024-01-29T07:21:25.549Z,101646.25
2024-01-29T07:22:25.883Z,101642.02
2024-01-29T07:23:26.056Z,101648.64
2024-01-29T07:24:26.639Z,101649.25
2024-01-29T07:25:26.784Z,101646.38
2024-01-29T07:26:27.072Z,101640.7
2024-01-29T07:27:27.832Z,101639.74
2024-01-29T07:28:27.897Z,101634.42
2024-01-29T07:29:28.217Z,101636.05
2024-01-29T07:30:28.662Z,101636.89
2024-01-29T07:31:28.781Z,101635.28
2024-01-29T07:32:29.519Z,101637.48
2024-01-29T07:33:30.006Z,101639.47
2024-01-29T07:34:30.118Z,101644.09
2024-01-29T07:35:30.380Z,101641.88
2024-01-29T07:36:30.847Z,101642.99
2024-01-29T07:37:31.256Z,101645.56
2024-01-29T07:38:31.537Z,101648.06
2024-01-29T07:39:31.853Z,101647.2
2024-01-29T07:40:32.470Z,101652.97
2024-01-29T07:41:32.600Z,101650.98
2024-01-29T07:42:32.907Z,101656.59
2024-01-29T07:43:33.114Z,101653.3
2024-01-29T07:44:33.510Z,101652.48
2024-01-29T07:45:35.225Z,101650.3
2024-01-29T07:46:34.580Z,101650.78
2024-01-29T07:47:34.802Z,101652.69
2024-01-29T07:48:35.184Z,101644.32
2024-01-29T07:49:35.384Z,101647.59
2024-01-29T07:50:35.623Z,101644.12
2024-01-29T07:51:36.058Z,101639.58
2024-01-29T07:52:36.963Z,101644.6
2024-01-29T07:53:36.607Z,101637.69
2024-01-29T07:54:37.199Z,101645.58
2024-01-29T07:55:37.612Z,101644.2
2024-01-29T07:56:37.717Z,101643.36
2024-01-29T07:57:38.138Z,101645.23
2024-01-29T07:58:38.496Z,101643.05
2024-01-29T07:59:38.749Z,101635.41
2024-01-29T08:00:39.267Z,101638.23
2024-01-29T08:01:40.573Z,101633.78
2024-01-29T08:02:39.963Z,101631.6
2024-01-29T08:03:41.107Z,101627.42
2024-01-29T08:04:41.357Z,101631.55
2024-01-29T08:05:41.568Z,101627.05
2024-01-29T08:06:41.247Z,101627.63
2024-01-29T08:07:41.876Z,101624.36
2024-01-29T08:08:41.913Z,101626.64
2024-01-29T08:09:42.299Z,101619.23
2024-01-29T08:10:43.016Z,101617.07
2024-01-29T08:11:42.958Z,101617.28
2024-01-29T08:12:43.576Z,101619.73
2024-01-29T08:13:43.743Z,101620.67
2024-01-29T08:14:44.177Z,101623.34
2024-01-29T08:15:44.622Z,101622.69
2024-01-29T08:16:45.014Z,101629.25
2024-01-29T08:17:45.956Z,101626.7
2024-01-29T08:18:46.073Z,101632.53
2024-01-29T08:19:46.135Z,101626.12
2024-01-29T08:20:46.452Z,101632.5
2024-01-29T08:21:46.527Z,101630.69
2024-01-29T08:22:47.007Z,101628.76
2024-01-29T08:23:47.419Z,101626.44
2024-01-29T08:24:49.090Z,101627.05
2024-01-29T08:25:48.025Z,101614.62
2024-01-29T08:26:48.432Z,101630.77
2024-01-29T08:27:50.065Z,101618.19
2024-01-29T08:28:49.108Z,101614.95
2024-01-29T08:29:49.393Z,101622.02
2024-01-29T08:30:49.907Z,101619.81
2024-01-29T08:31:50.230Z,101614.48
2024-01-29T08:32:50.540Z,101612.81
2024-01-29T08:33:51.506Z,101609.72
2024-01-29T08:34:51.350Z,101612.47
2024-01-29T08:35:51.696Z,101612.02
2024-01-29T08:36:51.928Z,101618.42
2024-01-29T08:37:52.398Z,101618.38
2024-01-29T08:38:52.568Z,101626.75
2024-01-29T08:39:53.163Z,101623.08
2024-01-29T08:40:53.354Z,101621.27
2024-01-29T08:41:53.621Z,101622.32
2024-01-29T08:42:54.245Z,101622.62
2024-01-29T08:43:54.426Z,101627.27
2024-01-29T08:44:54.817Z,101628.51
2024-01-29T08:45:55.675Z,101635.88
2024-01-29T08:46:55.552Z,101640.34
2024-01-29T08:47:55.978Z,101642.85
2024-01-29T08:48:56.375Z,101637.52
2024-01-29T08:49:56.820Z,101632.21
2024-01-29T08:50:56.934Z,101633.7
2024-01-29T08:51:57.299Z,101632.13
2024-01-29T08:52:57.947Z,101628.2
2024-01-29T08:53:57.950Z,101633.72
2024-01-29T08:54:58.498Z,101624.67
2024-01-29T08:55:59.067Z,101631.29
2024-01-29T08:56:59.288Z,101629.07
2024-01-29T08:57:59.530Z,101628.65
2024-01-29T08:58:59.834Z,101619.12
2024-01-29T09:00:00.179Z,101623.93
2024-01-29T09:01:00.725Z,101627.41
2024-01-29T09:02:01.119Z,101628.41
2024-01-29T09:03:01.400Z,101628.16
2024-01-29T09:04:01.968Z,101623.95
2024-01-29T09:05:02.518Z,101624.7
2024-01-29T09:06:02.358Z,101625.39
2024-01-29T09:07:03.022Z,101623.87
2024-01-29T09:08:10.137Z,101619.41
2024-01-29T09:09:03.692Z,101618.7
2024-01-29T09:10:04.717Z,101617.14
2024-01-29T09:11:04.910Z,101607.47
2024-01-29T09:12:05.555Z,101607.72
2024-01-29T09:13:05.229Z,101600.34
2024-01-29T09:14:05.536Z,101599.62
2024-01-29T09:15:06.575Z,101601.12
2024-01-29T09:16:06.730Z,101598.86
2024-01-29T09:17:06.581Z,101607.3
2024-01-29T09:18:07.178Z,101602.95
2024-01-29T09:19:07.414Z,101607.92
2024-01-29T09:20:08.798Z,101609.4
2024-01-29T09:21:09.795Z,101619.72
2024-01-29T09:22:08.382Z,101615.99
2024-01-29T09:23:09.004Z,101619.31
2024-01-29T09:24:09.338Z,101616.56
2024-01-29T09:25:09.815Z,101612.06
2024-01-29T09:26:09.727Z,101612.54
2024-01-29T09:27:10.377Z,101609.53
2024-01-29T09:28:10.803Z,101602.23
2024-01-29T09:29:11.009Z,101601.8
2024-01-29T09:30:12.054Z,101592.52
2024-01-29T09:31:11.711Z,101588.47
2024-01-29T09:32:11.831Z,101597.27
2024-01-29T09:33:18.496Z,101591.14
2024-01-29T09:34:14.608Z,101597.88
2024-01-29T09:35:15.115Z,101590.72
2024-01-29T09:36:15.041Z,101591.52
2024-01-29T09:37:17.014Z,101585.41
2024-01-29T09:38:16.484Z,101596.52
2024-01-29T09:39:16.473Z,101585.55
2024-01-29T09:40:16.870Z,101580.92
2024-01-29T09:41:17.007Z,101585.51
2024-01-29T09:42:20.208Z,101581.92
2024-01-29T09:43:20.118Z,101570.33
2024-01-29T09:44:18.135Z,101566.84
2024-01-29T09:45:24.714Z,101571.12
2024-01-29T09:46:23.218Z,101565.84
2024-01-29T09:47:23.667Z,101567.85
2024-01-29T09:48:24.391Z,101564.91
2024-01-29T09:49:23.476Z,101568.44
2024-01-29T09:50:24.771Z,101572.28
2024-01-29T09:51:24.494Z,101569.17
2024-01-29T09:52:25.151Z,101572.53
2024-01-29T09:53:26.104Z,101574.08
2024-01-29T09:54:25.165Z,101562.23
2024-01-29T09:55:28.087Z,101565.27
2024-01-29T09:56:25.950Z,101560.27
2024-01-29T09:57:26.435Z,101567.88
2024-01-29T09:58:26.627Z,101564.14
2024-01-29T09:59:27.150Z,101569.64
2024-01-29T10:00:29.896Z,101556.89
2024-01-29T10:01:28.988Z,101556.43
2024-01-29T10:02:34.069Z,101545.41
2024-01-29T10:03:32.291Z,101544.3
2024-01-29T10:04:32.055Z,101546.09
2024-01-29T10:05:33.022Z,101556.72
2024-01-29T10:06:33.951Z,101559.05
2024-01-29T10:07:34.215Z,101558.02
2024-01-29T10:08:34.993Z,101556.2
2024-01-29T10:09:33.990Z,101553.95
2024-01-29T10:10:34.806Z,101549.34
2024-01-29T10:11:34.625Z,101545.86
2024-01-29T10:12:35.147Z,101545.44
2024-01-29T10:13:36.254Z,101552.53
2024-01-29T10:14:36.055Z,101553.17
2024-01-29T10:15:36.387Z,101554.71
2024-01-29T10:16:36.491Z,101551.62
2024-01-29T10:17:37.020Z,101561.11
2024-01-29T10:18:37.935Z,101557.44
2024-01-29T10:19:40.765Z,101554.36
2024-01-29T10:20:38.378Z,101548.7
2024-01-29T10:21:40.550Z,101542.36
2024-01-29T10:22:39.195Z,101539.66
2024-01-29T10:23:39.593Z,101543.48
2024-01-29T10:24:39.950Z,101534.3
2024-01-29T10:25:41.033Z,101526.28
2024-01-29T10:26:41.916Z,101535.83
2024-01-29T10:27:41.279Z,101529.72
2024-01-29T10:28:41.366Z,101534.91
2024-01-29T10:29:48.774Z,101537.34
2024-01-29T10:30:46.333Z,101540.98
2024-01-29T10:31:46.621Z,101537.91
2024-01-29T10:32:47.034Z,101541.38
2024-01-29T10:33:47.782Z,101532.48
2024-01-29T10:34:48.077Z,101525.19
2024-01-29T10:35:48.666Z,101530.57
2024-01-29T10:36:49.991Z,101533.83
2024-01-29T10:37:48.909Z,101534.97
2024-01-29T10:38:49.556Z,101529.81
2024-01-29T10:39:56.816Z,101532.17
2024-01-29T10:40:53.639Z,101533.7
2024-01-29T10:41:54.457Z,101529.08
2024-01-29T10:42:58.414Z,101519.89
2024-01-29T10:43:56.745Z,101517.42
2024-01-29T10:45:00.299Z,101519.73
2024-01-29T10:45:59.453Z,101513.5
2024-01-29T10:47:00.628Z,101516.74
2024-01-29T10:48:12.539Z,101511.95
2024-01-29T10:49:01.073Z,101518.02
2024-01-29T10:50:01.341Z,101520.75
2024-01-29T10:51:02.044Z,101526.58
2024-01-29T10:52:03.144Z,101525.72
2024-01-29T10:53:04.477Z,101524.09
2024-01-29T10:54:03.270Z,101513.05
2024-01-29T10:55:03.431Z,101514.46
2024-01-29T10:56:05.513Z,101510.8
2024-01-29T10:57:04.593Z,101511.38
2024-01-29T10:58:04.844Z,101514.44
2024-01-29T10:59:04.561Z,101510.89
2024-01-29T11:00:05.684Z,101507.44
2024-01-29T11:01:06.542Z,101514.23
2024-01-29T11:02:06.960Z,101515.61
2024-01-29T11:03:06.623Z,101511.48
2024-01-29T11:04:07.823Z,101516.35
2024-01-29T11:05:07.654Z,101523.52
2024-01-29T11:07:13.858Z,101515.56
2024-01-29T11:08:18.615Z,101510.04
2024-01-29T11:09:20.811Z,101507.52
2024-01-29T11:10:21.997Z,101510.7
2024-01-29T11:11:19.855Z,101503.3
2024-01-29T11:12:20.156Z,101498.16
2024-01-29T11:13:21.963Z,101490.88
2024-01-29T11:14:20.612Z,101488.55
2024-01-29T11:15:21.405Z,101486.9
2024-01-29T11:16:23.296Z,101496.27
2024-01-29T11:17:22.156Z,101499.23
2024-01-29T11:18:22.081Z,101500.42
2024-01-29T11:19:23.120Z,101497.98
2024-01-29T11:20:23.950Z,101505.39
2024-01-29T11:21:25.856Z,101497.85
2024-01-29T11:22:23.621Z,101500.8
2024-01-29T11:23:28.492Z,101494.7
2024-01-29T11:24:28.835Z,101498.78
2024-01-29T11:25:29.280Z,101493.62
2024-01-29T11:26:31.030Z,101487.34
2024-01-29T11:27:32.705Z,101494.62
2024-01-29T11:28:30.231Z,101496.08
2024-01-29T11:29:36.164Z,101493.72
2024-01-29T11:30:33.619Z,101489.4
2024-01-29T11:31:43.603Z,101486.98
2024-01-29T11:32:36.134Z,101483.16